sensor_id;sensor_type;location;lat;lon;timestamp;P1;durP1;ratioP1;P2;durP2;ratioP2
74344;SDS011;62776;50.518;6.732;2023-02-18T00:00:58;1.30;;;1.20;;
74344;SDS011;62776;50.518;6.732;2023-02-18T00:03:59;1.65;;;1.55;;
74344;SDS011;62776;50.518;6.732;2023-02-18T00:06:48;1.13;;;1.00;;
74344;SDS011;62776;50.518;6.732;2023-02-18T00:09:37;1.10;;;1.10;;
74344;SDS011;62776;50.518;6.732;2023-02-18T00:12:23;1.13;;;1.13;;
74344;SDS011;62776;50.518;6.732;2023-02-18T00:15:09;1.17;;;1.08;;
74344;SDS011;62776;50.518;6.732;2023-02-18T00:17:58;1.13;;;1.10;;
74344;SDS011;62776;50.518;6.732;2023-02-18T00:20:44;1.95;;;1.75;;
74344;SDS011;62776;50.518;6.732;2023-02-18T00:23:32;1.20;;;1.10;;
74344;SDS011;62776;50.518;6.732;2023-02-18T00:26:20;1.23;;;1.13;;
74344;SDS011;62776;50.518;6.732;2023-02-18T00:29:06;0.90;;;0.90;;
74344;SDS011;62776;50.518;6.732;2023-02-18T00:31:53;1.20;;;1.20;;
74344;SDS011;62776;50.518;6.732;2023-02-18T00:34:41;0.80;;;0.80;;
74344;SDS011;62776;50.518;6.732;2023-02-18T00:37:28;1.05;;;0.90;;
74344;SDS011;62776;50.518;6.732;2023-02-18T00:40:15;0.98;;;0.98;;
74344;SDS011;62776;50.518;6.732;2023-02-18T00:43:01;0.98;;;0.98;;
74344;SDS011;62776;50.518;6.732;2023-02-18T00:45:51;0.93;;;0.80;;
74344;SDS011;62776;50.518;6.732;2023-02-18T00:48:37;0.93;;;0.93;;
74344;SDS011;62776;50.518;6.732;2023-02-18T00:51:35;0.88;;;0.88;;
74344;SDS011;62776;50.518;6.732;2023-02-18T00:54:22;0.80;;;0.80;;
74344;SDS011;62776;50.518;6.732;2023-02-18T00:57:08;0.60;;;0.60;;
74344;SDS011;62776;50.518;6.732;2023-02-18T00:59:54;0.68;;;0.68;;
74344;SDS011;62776;50.518;6.732;2023-02-18T01:02:41;0.65;;;0.60;;
74344;SDS011;62776;50.518;6.732;2023-02-18T01:05:28;0.90;;;0.73;;
74344;SDS011;62776;50.518;6.732;2023-02-18T01:08:15;0.60;;;0.60;;
74344;SDS011;62776;50.518;6.732;2023-02-18T01:11:19;0.68;;;0.65;;
74344;SDS011;62776;50.518;6.732;2023-02-18T01:14:11;0.60;;;0.60;;
74344;SDS011;62776;50.518;6.732;2023-02-18T01:16:57;0.60;;;0.60;;
74344;SDS011;62776;50.518;6.732;2023-02-18T01:19:47;0.40;;;0.40;;
74344;SDS011;62776;50.518;6.732;2023-02-18T01:22:34;0.70;;;0.60;;
74344;SDS011;62776;50.518;6.732;2023-02-18T01:25:24;0.45;;;0.45;;
74344;SDS011;62776;50.518;6.732;2023-02-18T01:28:13;0.68;;;0.68;;
74344;SDS011;62776;50.518;6.732;2023-02-18T01:31:12;0.50;;;0.50;;
74344;SDS011;62776;50.518;6.732;2023-02-18T01:34:01;0.40;;;0.40;;
74344;SDS011;62776;50.518;6.732;2023-02-18T01:36:50;0.40;;;0.40;;
74344;SDS011;62776;50.518;6.732;2023-02-18T01:39:38;1.30;;;0.63;;
74344;SDS011;62776;50.518;6.732;2023-02-18T01:42:27;0.40;;;0.40;;
74344;SDS011;62776;50.518;6.732;2023-02-18T01:48:24;0.40;;;0.40;;
74344;SDS011;62776;50.518;6.732;2023-02-18T01:54:17;0.43;;;0.43;;
74344;SDS011;62776;50.518;6.732;2023-02-18T01:57:26;0.85;;;0.50;;
74344;SDS011;62776;50.518;6.732;2023-02-18T02:00:18;0.43;;;0.40;;
74344;SDS011;62776;50.518;6.732;2023-02-18T02:03:08;0.50;;;0.50;;
74344;SDS011;62776;50.518;6.732;2023-02-18T02:05:35;0.93;;;0.93;;
74344;SDS011;62776;50.518;6.732;2023-02-18T02:08:21;0.85;;;0.60;;
74344;SDS011;62776;50.518;6.732;2023-02-18T02:39:07;1.02;;;0.82;;
74344;SDS011;62776;50.518;6.732;2023-02-18T02:45:13;1.02;;;0.80;;
74344;SDS011;62776;50.518;6.732;2023-02-18T02:51:29;0.60;;;0.60;;
74344;SDS011;62776;50.518;6.732;2023-02-18T02:54:23;0.63;;;0.55;;
74344;SDS011;62776;50.518;6.732;2023-02-18T03:00:03;0.50;;;0.50;;
74344;SDS011;62776;50.518;6.732;2023-02-18T03:09:53;0.50;;;0.50;;
74344;SDS011;62776;50.518;6.732;2023-02-18T03:22:16;0.55;;;0.50;;
74344;SDS011;62776;50.518;6.732;2023-02-18T03:25:18;0.60;;;0.52;;
74344;SDS011;62776;50.518;6.732;2023-02-18T03:28:08;0.45;;;0.45;;
74344;SDS011;62776;50.518;6.732;2023-02-18T03:31:02;0.40;;;0.40;;
74344;SDS011;62776;50.518;6.732;2023-02-18T03:34:09;0.45;;;0.45;;
74344;SDS011;62776;50.518;6.732;2023-02-18T03:36:59;0.60;;;0.60;;
74344;SDS011;62776;50.518;6.732;2023-02-18T03:39:51;0.40;;;0.40;;
74344;SDS011;62776;50.518;6.732;2023-02-18T03:42:51;0.40;;;0.40;;
74344;SDS011;62776;50.518;6.732;2023-02-18T03:45:37;0.50;;;0.50;;
74344;SDS011;62776;50.518;6.732;2023-02-18T03:48:25;0.52;;;0.50;;
74344;SDS011;62776;50.518;6.732;2023-02-18T03:51:11;0.43;;;0.43;;
74344;SDS011;62776;50.518;6.732;2023-02-18T03:53:58;0.43;;;0.38;;
74344;SDS011;62776;50.518;6.732;2023-02-18T03:56:45;0.40;;;0.40;;
74344;SDS011;62776;50.518;6.732;2023-02-18T03:59:31;0.30;;;0.30;;
74344;SDS011;62776;50.518;6.732;2023-02-18T04:02:18;0.30;;;0.30;;
74344;SDS011;62776;50.518;6.732;2023-02-18T04:05:05;0.30;;;0.30;;
74344;SDS011;62776;50.518;6.732;2023-02-18T04:07:51;0.45;;;0.45;;
74344;SDS011;62776;50.518;6.732;2023-02-18T04:10:39;0.43;;;0.38;;
74344;SDS011;62776;50.518;6.732;2023-02-18T04:13:26;0.35;;;0.35;;
74344;SDS011;62776;50.518;6.732;2023-02-18T04:16:13;0.30;;;0.30;;
74344;SDS011;62776;50.518;6.732;2023-02-18T04:19:02;0.30;;;0.30;;
74344;SDS011;62776;50.518;6.732;2023-02-18T04:21:52;0.35;;;0.35;;
74344;SDS011;62776;50.518;6.732;2023-02-18T04:24:39;0.30;;;0.30;;
74344;SDS011;62776;50.518;6.732;2023-02-18T04:27:25;0.80;;;0.35;;
74344;SDS011;62776;50.518;6.732;2023-02-18T04:30:11;0.30;;;0.30;;
74344;SDS011;62776;50.518;6.732;2023-02-18T04:32:59;0.30;;;0.30;;
74344;SDS011;62776;50.518;6.732;2023-02-18T04:35:46;0.40;;;0.40;;
74344;SDS011;62776;50.518;6.732;2023-02-18T04:38:33;0.30;;;0.30;;
74344;SDS011;62776;50.518;6.732;2023-02-18T04:41:22;0.30;;;0.30;;
74344;SDS011;62776;50.518;6.732;2023-02-18T04:44:08;0.50;;;0.50;;
74344;SDS011;62776;50.518;6.732;2023-02-18T04:46:56;0.68;;;0.40;;
74344;SDS011;62776;50.518;6.732;2023-02-18T04:49:45;1.90;;;0.50;;
74344;SDS011;62776;50.518;6.732;2023-02-18T04:52:41;0.30;;;0.30;;
74344;SDS011;62776;50.518;6.732;2023-02-18T04:55:30;0.30;;;0.30;;
74344;SDS011;62776;50.518;6.732;2023-02-18T04:58:20;0.38;;;0.38;;
74344;SDS011;62776;50.518;6.732;2023-02-18T05:01:09;0.30;;;0.30;;
74344;SDS011;62776;50.518;6.732;2023-02-18T05:04:01;0.30;;;0.30;;
74344;SDS011;62776;50.518;6.732;2023-02-18T05:06:49;0.38;;;0.38;;
74344;SDS011;62776;50.518;6.732;2023-02-18T05:09:35;0.43;;;0.43;;
74344;SDS011;62776;50.518;6.732;2023-02-18T05:12:23;0.30;;;0.30;;
74344;SDS011;62776;50.518;6.732;2023-02-18T05:15:10;0.25;;;0.25;;
74344;SDS011;62776;50.518;6.732;2023-02-18T05:17:57;0.40;;;0.40;;
74344;SDS011;62776;50.518;6.732;2023-02-18T05:20:47;0.30;;;0.30;;
74344;SDS011;62776;50.518;6.732;2023-02-18T05:23:33;0.50;;;0.50;;
74344;SDS011;62776;50.518;6.732;2023-02-18T05:26:19;0.40;;;0.40;;
74344;SDS011;62776;50.518;6.732;2023-02-18T05:29:05;0.95;;;0.40;;
74344;SDS011;62776;50.518;6.732;2023-02-18T05:31:52;1.02;;;0.47;;
74344;SDS011;62776;50.518;6.732;2023-02-18T05:34:38;0.30;;;0.30;;
74344;SDS011;62776;50.518;6.732;2023-02-18T05:37:25;0.40;;;0.40;;
74344;SDS011;62776;50.518;6.732;2023-02-18T05:40:16;0.40;;;0.40;;
74344;SDS011;62776;50.518;6.732;2023-02-18T05:43:03;0.50;;;0.50;;
74344;SDS011;62776;50.518;6.732;2023-02-18T05:45:49;0.55;;;0.55;;
74344;SDS011;62776;50.518;6.732;2023-02-18T05:48:35;0.70;;;0.70;;
74344;SDS011;62776;50.518;6.732;2023-02-18T05:51:30;0.60;;;0.60;;
74344;SDS011;62776;50.518;6.732;2023-02-18T05:54:17;0.40;;;0.40;;
74344;SDS011;62776;50.518;6.732;2023-02-18T05:57:05;0.40;;;0.40;;
74344;SDS011;62776;50.518;6.732;2023-02-18T05:59:51;0.30;;;0.30;;
74344;SDS011;62776;50.518;6.732;2023-02-18T06:02:40;0.40;;;0.40;;
74344;SDS011;62776;50.518;6.732;2023-02-18T06:05:29;0.40;;;0.40;;
74344;SDS011;62776;50.518;6.732;2023-02-18T06:08:15;0.25;;;0.25;;
74344;SDS011;62776;50.518;6.732;2023-02-18T06:11:06;0.40;;;0.40;;
74344;SDS011;62776;50.518;6.732;2023-02-18T06:13:52;0.40;;;0.40;;
74344;SDS011;62776;50.518;6.732;2023-02-18T06:16:40;0.50;;;0.50;;
74344;SDS011;62776;50.518;6.732;2023-02-18T06:19:27;0.40;;;0.40;;
74344;SDS011;62776;50.518;6.732;2023-02-18T06:22:16;0.40;;;0.40;;
74344;SDS011;62776;50.518;6.732;2023-02-18T06:25:02;1.00;;;1.00;;
74344;SDS011;62776;50.518;6.732;2023-02-18T06:27:54;0.50;;;0.50;;
74344;SDS011;62776;50.518;6.732;2023-02-18T06:30:43;1.38;;;1.17;;
74344;SDS011;62776;50.518;6.732;2023-02-18T06:33:32;0.50;;;0.50;;
74344;SDS011;62776;50.518;6.732;2023-02-18T06:36:19;0.50;;;0.50;;
74344;SDS011;62776;50.518;6.732;2023-02-18T06:39:14;2.58;;;2.38;;
74344;SDS011;62776;50.518;6.732;2023-02-18T06:42:00;1.15;;;1.13;;
74344;SDS011;62776;50.518;6.732;2023-02-18T06:44:47;0.90;;;0.90;;
74344;SDS011;62776;50.518;6.732;2023-02-18T06:47:35;0.70;;;0.70;;
74344;SDS011;62776;50.518;6.732;2023-02-18T06:50:22;0.98;;;0.45;;
74344;SDS011;62776;50.518;6.732;2023-02-18T06:53:09;1.20;;;1.10;;
74344;SDS011;62776;50.518;6.732;2023-02-18T06:55:57;0.70;;;0.70;;
74344;SDS011;62776;50.518;6.732;2023-02-18T06:58:45;0.80;;;0.80;;
74344;SDS011;62776;50.518;6.732;2023-02-18T07:01:33;0.95;;;0.93;;
74344;SDS011;62776;50.518;6.732;2023-02-18T07:04:20;1.73;;;1.27;;
74344;SDS011;62776;50.518;6.732;2023-02-18T07:07:10;2.15;;;1.60;;
74344;SDS011;62776;50.518;6.732;2023-02-18T07:09:57;0.63;;;0.40;;
74344;SDS011;62776;50.518;6.732;2023-02-18T07:12:43;0.50;;;0.50;;
74344;SDS011;62776;50.518;6.732;2023-02-18T07:15:34;0.68;;;0.57;;
74344;SDS011;62776;50.518;6.732;2023-02-18T07:18:22;0.40;;;0.40;;
74344;SDS011;62776;50.518;6.732;2023-02-18T07:21:14;2.20;;;1.93;;
74344;SDS011;62776;50.518;6.732;2023-02-18T07:24:02;0.40;;;0.40;;
74344;SDS011;62776;50.518;6.732;2023-02-18T07:26:50;0.65;;;0.50;;
74344;SDS011;62776;50.518;6.732;2023-02-18T07:29:37;0.75;;;0.45;;
74344;SDS011;62776;50.518;6.732;2023-02-18T07:32:25;0.50;;;0.50;;
74344;SDS011;62776;50.518;6.732;2023-02-18T07:35:13;0.55;;;0.55;;
74344;SDS011;62776;50.518;6.732;2023-02-18T07:38:02;0.30;;;0.30;;
74344;SDS011;62776;50.518;6.732;2023-02-18T07:40:49;0.50;;;0.50;;
74344;SDS011;62776;50.518;6.732;2023-02-18T07:43:46;0.45;;;0.45;;
74344;SDS011;62776;50.518;6.732;2023-02-18T07:46:39;0.40;;;0.40;;
74344;SDS011;62776;50.518;6.732;2023-02-18T07:49:27;0.30;;;0.30;;
74344;SDS011;62776;50.518;6.732;2023-02-18T07:52:15;0.60;;;0.60;;
74344;SDS011;62776;50.518;6.732;2023-02-18T07:55:04;0.50;;;0.50;;
74344;SDS011;62776;50.518;6.732;2023-02-18T07:58:09;0.35;;;0.35;;
74344;SDS011;62776;50.518;6.732;2023-02-18T08:01:04;0.50;;;0.50;;
74344;SDS011;62776;50.518;6.732;2023-02-18T08:03:54;0.40;;;0.40;;
74344;SDS011;62776;50.518;6.732;2023-02-18T08:06:42;0.40;;;0.40;;
74344;SDS011;62776;50.518;6.732;2023-02-18T08:09:36;0.50;;;0.50;;
74344;SDS011;62776;50.518;6.732;2023-02-18T08:12:24;0.77;;;0.40;;
74344;SDS011;62776;50.518;6.732;2023-02-18T08:15:11;0.40;;;0.40;;
74344;SDS011;62776;50.518;6.732;2023-02-18T08:18:08;0.32;;;0.32;;
74344;SDS011;62776;50.518;6.732;2023-02-18T08:21:16;0.65;;;0.65;;
74344;SDS011;62776;50.518;6.732;2023-02-18T08:24:05;0.30;;;0.30;;
74344;SDS011;62776;50.518;6.732;2023-02-18T08:26:53;0.52;;;0.43;;
74344;SDS011;62776;50.518;6.732;2023-02-18T08:29:39;0.50;;;0.50;;
74344;SDS011;62776;50.518;6.732;2023-02-18T08:32:26;0.60;;;0.60;;
74344;SDS011;62776;50.518;6.732;2023-02-18T08:35:13;0.60;;;0.60;;
74344;SDS011;62776;50.518;6.732;2023-02-18T08:37:59;1.55;;;1.00;;
74344;SDS011;62776;50.518;6.732;2023-02-18T08:41:00;1.08;;;1.00;;
74344;SDS011;62776;50.518;6.732;2023-02-18T08:43:51;1.95;;;1.10;;
74344;SDS011;62776;50.518;6.732;2023-02-18T08:46:45;1.90;;;1.60;;
74344;SDS011;62776;50.518;6.732;2023-02-18T08:49:38;1.33;;;0.90;;
74344;SDS011;62776;50.518;6.732;2023-02-18T08:52:24;1.48;;;1.10;;
74344;SDS011;62776;50.518;6.732;2023-02-18T08:55:13;2.22;;;1.30;;
74344;SDS011;62776;50.518;6.732;2023-02-18T08:58:04;4.88;;;1.20;;
74344;SDS011;62776;50.518;6.732;2023-02-18T09:00:56;1.52;;;1.10;;
74344;SDS011;62776;50.518;6.732;2023-02-18T09:03:48;2.33;;;1.20;;
74344;SDS011;62776;50.518;6.732;2023-02-18T09:06:37;3.55;;;1.60;;
74344;SDS011;62776;50.518;6.732;2023-02-18T09:09:25;2.38;;;1.13;;
74344;SDS011;62776;50.518;6.732;2023-02-18T09:12:11;2.47;;;1.20;;
74344;SDS011;62776;50.518;6.732;2023-02-18T09:15:00;2.20;;;1.10;;
74344;SDS011;62776;50.518;6.732;2023-02-18T09:17:48;2.45;;;1.15;;
74344;SDS011;62776;50.518;6.732;2023-02-18T09:20:35;2.67;;;1.23;;
74344;SDS011;62776;50.518;6.732;2023-02-18T09:23:27;3.22;;;1.40;;
74344;SDS011;62776;50.518;6.732;2023-02-18T09:26:15;2.40;;;1.30;;
74344;SDS011;62776;50.518;6.732;2023-02-18T09:29:07;2.85;;;1.25;;
74344;SDS011;62776;50.518;6.732;2023-02-18T09:31:58;2.38;;;1.20;;
74344;SDS011;62776;50.518;6.732;2023-02-18T09:34:52;2.47;;;1.10;;
74344;SDS011;62776;50.518;6.732;2023-02-18T09:37:38;1.63;;;1.00;;
74344;SDS011;62776;50.518;6.732;2023-02-18T09:40:28;2.85;;;1.25;;
74344;SDS011;62776;50.518;6.732;2023-02-18T09:43:21;1.83;;;1.00;;
74344;SDS011;62776;50.518;6.732;2023-02-18T09:46:34;2.78;;;1.00;;
74344;SDS011;62776;50.518;6.732;2023-02-18T09:49:29;1.52;;;0.85;;
74344;SDS011;62776;50.518;6.732;2023-02-18T09:52:21;1.67;;;0.85;;
74344;SDS011;62776;50.518;6.732;2023-02-18T09:55:26;1.58;;;1.20;;
74344;SDS011;62776;50.518;6.732;2023-02-18T09:58:21;2.22;;;1.42;;
74344;SDS011;62776;50.518;6.732;2023-02-18T10:01:23;2.33;;;1.13;;
74344;SDS011;62776;50.518;6.732;2023-02-18T10:04:38;2.22;;;1.42;;
74344;SDS011;62776;50.518;6.732;2023-02-18T10:07:31;2.05;;;1.40;;
74344;SDS011;62776;50.518;6.732;2023-02-18T10:10:35;5.13;;;2.10;;
74344;SDS011;62776;50.518;6.732;2023-02-18T10:13:30;3.15;;;1.70;;
74344;SDS011;62776;50.518;6.732;2023-02-18T10:16:18;1.83;;;1.60;;
74344;SDS011;62776;50.518;6.732;2023-02-18T10:19:24;1.50;;;1.40;;
74344;SDS011;62776;50.518;6.732;2023-02-18T10:22:25;2.88;;;1.70;;
74344;SDS011;62776;50.518;6.732;2023-02-18T10:25:18;2.80;;;1.70;;
74344;SDS011;62776;50.518;6.732;2023-02-18T10:28:07;2.17;;;1.30;;
74344;SDS011;62776;50.518;6.732;2023-02-18T10:30:56;2.03;;;1.17;;
74344;SDS011;62776;50.518;6.732;2023-02-18T10:33:53;3.17;;;1.40;;
74344;SDS011;62776;50.518;6.732;2023-02-18T10:36:54;4.00;;;1.60;;
74344;SDS011;62776;50.518;6.732;2023-02-18T10:40:12;1.50;;;1.40;;
74344;SDS011;62776;50.518;6.732;2023-02-18T10:43:25;1.40;;;1.30;;
74344;SDS011;62776;50.518;6.732;2023-02-18T10:46:24;1.63;;;1.00;;
74344;SDS011;62776;50.518;6.732;2023-02-18T10:49:33;1.20;;;1.10;;
74344;SDS011;62776;50.518;6.732;2023-02-18T10:52:44;1.50;;;1.13;;
74344;SDS011;62776;50.518;6.732;2023-02-18T10:55:41;1.45;;;1.15;;
74344;SDS011;62776;50.518;6.732;2023-02-18T11:01:20;1.35;;;1.23;;
74344;SDS011;62776;50.518;6.732;2023-02-18T11:04:14;1.23;;;1.10;;
74344;SDS011;62776;50.518;6.732;2023-02-18T11:07:05;1.67;;;1.13;;
74344;SDS011;62776;50.518;6.732;2023-02-18T11:10:12;2.28;;;0.98;;
74344;SDS011;62776;50.518;6.732;2023-02-18T11:13:14;0.80;;;0.80;;
74344;SDS011;62776;50.518;6.732;2023-02-18T11:16:13;2.05;;;1.15;;
74344;SDS011;62776;50.518;6.732;2023-02-18T11:19:00;1.30;;;1.20;;
74344;SDS011;62776;50.518;6.732;2023-02-18T11:21:48;0.80;;;0.80;;
74344;SDS011;62776;50.518;6.732;2023-02-18T11:24:37;0.70;;;0.70;;
74344;SDS011;62776;50.518;6.732;2023-02-18T11:27:25;1.13;;;0.90;;
74344;SDS011;62776;50.518;6.732;2023-02-18T11:30:41;1.00;;;1.00;;
74344;SDS011;62776;50.518;6.732;2023-02-18T11:33:38;1.00;;;1.00;;
74344;SDS011;62776;50.518;6.732;2023-02-18T11:36:33;0.55;;;0.55;;
74344;SDS011;62776;50.518;6.732;2023-02-18T11:39:23;0.60;;;0.60;;
74344;SDS011;62776;50.518;6.732;2023-02-18T11:42:14;0.70;;;0.70;;
74344;SDS011;62776;50.518;6.732;2023-02-18T11:45:05;1.83;;;0.70;;
74344;SDS011;62776;50.518;6.732;2023-02-18T11:48:15;0.68;;;0.68;;
74344;SDS011;62776;50.518;6.732;2023-02-18T11:51:03;0.75;;;0.75;;
74344;SDS011;62776;50.518;6.732;2023-02-18T11:53:57;0.77;;;0.60;;
74344;SDS011;62776;50.518;6.732;2023-02-18T11:57:02;0.77;;;0.57;;
74344;SDS011;62776;50.518;6.732;2023-02-18T11:59:50;0.40;;;0.40;;
74344;SDS011;62776;50.518;6.732;2023-02-18T12:02:40;1.40;;;1.30;;
74344;SDS011;62776;50.518;6.732;2023-02-18T12:05:29;0.52;;;0.52;;
74344;SDS011;62776;50.518;6.732;2023-02-18T12:08:21;0.60;;;0.60;;
74344;SDS011;62776;50.518;6.732;2023-02-18T12:11:24;0.95;;;0.75;;
74344;SDS011;62776;50.518;6.732;2023-02-18T12:14:21;0.70;;;0.70;;
74344;SDS011;62776;50.518;6.732;2023-02-18T12:17:13;0.90;;;0.77;;
74344;SDS011;62776;50.518;6.732;2023-02-18T12:36:52;0.70;;;0.70;;
74344;SDS011;62776;50.518;6.732;2023-02-18T12:52:35;0.50;;;0.50;;
74344;SDS011;62776;50.518;6.732;2023-02-18T12:56:37;0.50;;;0.50;;
74344;SDS011;62776;50.518;6.732;2023-02-18T13:14:26;0.40;;;0.40;;
74344;SDS011;62776;50.518;6.732;2023-02-18T13:17:16;0.60;;;0.60;;
74344;SDS011;62776;50.518;6.732;2023-02-18T13:20:13;0.50;;;0.50;;
74344;SDS011;62776;50.518;6.732;2023-02-18T13:23:17;0.60;;;0.60;;
74344;SDS011;62776;50.518;6.732;2023-02-18T13:26:16;0.50;;;0.50;;
74344;SDS011;62776;50.518;6.732;2023-02-18T13:32:20;0.60;;;0.60;;
74344;SDS011;62776;50.518;6.732;2023-02-18T13:35:30;0.50;;;0.50;;
74344;SDS011;62776;50.518;6.732;2023-02-18T13:45:03;0.80;;;0.55;;
74344;SDS011;62776;50.518;6.732;2023-02-18T13:48:25;0.60;;;0.60;;
74344;SDS011;62776;50.518;6.732;2023-02-18T13:51:15;0.70;;;0.40;;
74344;SDS011;62776;50.518;6.732;2023-02-18T13:57:04;0.68;;;0.68;;
74344;SDS011;62776;50.518;6.732;2023-02-18T14:00:01;0.40;;;0.40;;
74344;SDS011;62776;50.518;6.732;2023-02-18T14:21:17;0.57;;;0.52;;
74344;SDS011;62776;50.518;6.732;2023-02-18T14:24:11;0.50;;;0.50;;
74344;SDS011;62776;50.518;6.732;2023-02-18T14:27:17;0.40;;;0.40;;
74344;SDS011;62776;50.518;6.732;2023-02-18T14:33:11;0.55;;;0.55;;
74344;SDS011;62776;50.518;6.732;2023-02-18T14:36:21;0.88;;;0.60;;
74344;SDS011;62776;50.518;6.732;2023-02-18T14:42:49;1.15;;;0.85;;
74344;SDS011;62776;50.518;6.732;2023-02-18T14:48:58;1.67;;;0.43;;
74344;SDS011;62776;50.518;6.732;2023-02-18T14:52:01;0.52;;;0.47;;
74344;SDS011;62776;50.518;6.732;2023-02-18T14:54:50;0.50;;;0.50;;
74344;SDS011;62776;50.518;6.732;2023-02-18T14:57:41;0.43;;;0.43;;
74344;SDS011;62776;50.518;6.732;2023-02-18T15:00:34;0.40;;;0.40;;
74344;SDS011;62776;50.518;6.732;2023-02-18T15:03:26;0.50;;;0.50;;
74344;SDS011;62776;50.518;6.732;2023-02-18T15:09:21;0.60;;;0.60;;
74344;SDS011;62776;50.518;6.732;2023-02-18T15:12:08;0.43;;;0.40;;
74344;SDS011;62776;50.518;6.732;2023-02-18T15:14:59;0.50;;;0.50;;
74344;SDS011;62776;50.518;6.732;2023-02-18T15:17:50;0.50;;;0.50;;
74344;SDS011;62776;50.518;6.732;2023-02-18T15:20:37;0.45;;;0.45;;
74344;SDS011;62776;50.518;6.732;2023-02-18T15:23:24;0.40;;;0.40;;
74344;SDS011;62776;50.518;6.732;2023-02-18T15:26:12;0.40;;;0.40;;
74344;SDS011;62776;50.518;6.732;2023-02-18T15:29:01;0.50;;;0.50;;
74344;SDS011;62776;50.518;6.732;2023-02-18T15:31:50;1.60;;;0.50;;
74344;SDS011;62776;50.518;6.732;2023-02-18T15:34:45;1.75;;;0.47;;
74344;SDS011;62776;50.518;6.732;2023-02-18T15:37:36;0.30;;;0.30;;
74344;SDS011;62776;50.518;6.732;2023-02-18T15:40:24;0.50;;;0.50;;
74344;SDS011;62776;50.518;6.732;2023-02-18T15:46:12;0.30;;;0.30;;
74344;SDS011;62776;50.518;6.732;2023-02-18T15:49:06;0.40;;;0.40;;
74344;SDS011;62776;50.518;6.732;2023-02-18T15:51:55;0.50;;;0.50;;
74344;SDS011;62776;50.518;6.732;2023-02-18T15:54:45;0.40;;;0.40;;
74344;SDS011;62776;50.518;6.732;2023-02-18T15:57:32;0.40;;;0.40;;
74344;SDS011;62776;50.518;6.732;2023-02-18T16:00:26;0.52;;;0.52;;
74344;SDS011;62776;50.518;6.732;2023-02-18T16:03:23;0.30;;;0.30;;
74344;SDS011;62776;50.518;6.732;2023-02-18T16:06:18;0.47;;;0.47;;
74344;SDS011;62776;50.518;6.732;2023-02-18T16:09:36;0.55;;;0.55;;
74344;SDS011;62776;50.518;6.732;2023-02-18T16:12:30;0.40;;;0.40;;
74344;SDS011;62776;50.518;6.732;2023-02-18T16:15:23;0.45;;;0.45;;
74344;SDS011;62776;50.518;6.732;2023-02-18T16:18:25;0.88;;;0.70;;
74344;SDS011;62776;50.518;6.732;2023-02-18T16:21:22;0.38;;;0.38;;
74344;SDS011;62776;50.518;6.732;2023-02-18T16:27:14;0.50;;;0.50;;
74344;SDS011;62776;50.518;6.732;2023-02-18T16:30:03;0.70;;;0.70;;
74344;SDS011;62776;50.518;6.732;2023-02-18T16:33:01;0.55;;;0.55;;
74344;SDS011;62776;50.518;6.732;2023-02-18T16:35:54;0.75;;;0.52;;
74344;SDS011;62776;50.518;6.732;2023-02-18T16:38:43;0.57;;;0.57;;
74344;SDS011;62776;50.518;6.732;2023-02-18T16:41:30;0.60;;;0.60;;
74344;SDS011;62776;50.518;6.732;2023-02-18T16:44:17;0.40;;;0.40;;
74344;SDS011;62776;50.518;6.732;2023-02-18T16:47:04;1.17;;;0.50;;
74344;SDS011;62776;50.518;6.732;2023-02-18T16:49:57;0.35;;;0.35;;
74344;SDS011;62776;50.518;6.732;2023-02-18T16:52:44;0.70;;;0.60;;
74344;SDS011;62776;50.518;6.732;2023-02-18T16:55:38;0.50;;;0.50;;
74344;SDS011;62776;50.518;6.732;2023-02-18T16:58:24;0.50;;;0.50;;
74344;SDS011;62776;50.518;6.732;2023-02-18T17:01:19;0.52;;;0.50;;
74344;SDS011;62776;50.518;6.732;2023-02-18T17:04:28;0.50;;;0.50;;
74344;SDS011;62776;50.518;6.732;2023-02-18T17:07:14;0.43;;;0.43;;
74344;SDS011;62776;50.518;6.732;2023-02-18T17:10:02;0.63;;;0.63;;
74344;SDS011;62776;50.518;6.732;2023-02-18T17:12:50;0.50;;;0.50;;
74344;SDS011;62776;50.518;6.732;2023-02-18T17:15:36;0.50;;;0.50;;
74344;SDS011;62776;50.518;6.732;2023-02-18T17:18:23;0.73;;;0.70;;
74344;SDS011;62776;50.518;6.732;2023-02-18T17:21:12;0.70;;;0.70;;
74344;SDS011;62776;50.518;6.732;2023-02-18T17:24:00;0.70;;;0.70;;
74344;SDS011;62776;50.518;6.732;2023-02-18T17:26:46;0.50;;;0.50;;
74344;SDS011;62776;50.518;6.732;2023-02-18T17:29:32;0.52;;;0.52;;
74344;SDS011;62776;50.518;6.732;2023-02-18T17:32:19;0.80;;;0.80;;
74344;SDS011;62776;50.518;6.732;2023-02-18T17:35:08;0.60;;;0.60;;
74344;SDS011;62776;50.518;6.732;2023-02-18T17:38:09;1.17;;;0.50;;
74344;SDS011;62776;50.518;6.732;2023-02-18T17:40:57;0.50;;;0.50;;
74344;SDS011;62776;50.518;6.732;2023-02-18T17:43:46;0.70;;;0.70;;
74344;SDS011;62776;50.518;6.732;2023-02-18T17:46:33;0.60;;;0.60;;
74344;SDS011;62776;50.518;6.732;2023-02-18T17:49:21;0.52;;;0.52;;
74344;SDS011;62776;50.518;6.732;2023-02-18T17:52:10;0.70;;;0.65;;
74344;SDS011;62776;50.518;6.732;2023-02-18T17:55:26;0.73;;;0.73;;
74344;SDS011;62776;50.518;6.732;2023-02-18T17:58:14;0.40;;;0.40;;
74344;SDS011;62776;50.518;6.732;2023-02-18T18:01:03;0.70;;;0.70;;
74344;SDS011;62776;50.518;6.732;2023-02-18T18:03:51;0.95;;;0.68;;
74344;SDS011;62776;50.518;6.732;2023-02-18T18:06:37;1.10;;;0.60;;
74344;SDS011;62776;50.518;6.732;2023-02-18T18:09:25;0.50;;;0.50;;
74344;SDS011;62776;50.518;6.732;2023-02-18T18:12:12;0.60;;;0.60;;
74344;SDS011;62776;50.518;6.732;2023-02-18T18:15:14;0.60;;;0.60;;
74344;SDS011;62776;50.518;6.732;2023-02-18T18:18:09;0.60;;;0.60;;
74344;SDS011;62776;50.518;6.732;2023-02-18T18:20:57;0.77;;;0.60;;
74344;SDS011;62776;50.518;6.732;2023-02-18T18:23:46;0.70;;;0.70;;
74344;SDS011;62776;50.518;6.732;2023-02-18T18:26:34;0.63;;;0.63;;
74344;SDS011;62776;50.518;6.732;2023-02-18T18:29:21;1.30;;;1.20;;
74344;SDS011;62776;50.518;6.732;2023-02-18T18:32:07;0.80;;;0.70;;
74344;SDS011;62776;50.518;6.732;2023-02-18T18:34:54;0.52;;;0.52;;
74344;SDS011;62776;50.518;6.732;2023-02-18T18:37:45;0.70;;;0.70;;
74344;SDS011;62776;50.518;6.732;2023-02-18T18:40:49;0.60;;;0.60;;
74344;SDS011;62776;50.518;6.732;2023-02-18T18:43:36;0.88;;;0.80;;
74344;SDS011;62776;50.518;6.732;2023-02-18T18:46:30;0.50;;;0.50;;
74344;SDS011;62776;50.518;6.732;2023-02-18T18:49:16;0.60;;;0.60;;
74344;SDS011;62776;50.518;6.732;2023-02-18T18:52:04;0.60;;;0.60;;
74344;SDS011;62776;50.518;6.732;2023-02-18T18:54:53;0.50;;;0.50;;
74344;SDS011;62776;50.518;6.732;2023-02-18T18:57:39;0.60;;;0.60;;
74344;SDS011;62776;50.518;6.732;2023-02-18T19:00:37;0.50;;;0.50;;
74344;SDS011;62776;50.518;6.732;2023-02-18T19:03:28;0.50;;;0.50;;
74344;SDS011;62776;50.518;6.732;2023-02-18T19:06:16;0.60;;;0.60;;
74344;SDS011;62776;50.518;6.732;2023-02-18T19:09:15;0.60;;;0.60;;
74344;SDS011;62776;50.518;6.732;2023-02-18T19:12:03;0.50;;;0.50;;
74344;SDS011;62776;50.518;6.732;2023-02-18T19:14:53;0.50;;;0.50;;
74344;SDS011;62776;50.518;6.732;2023-02-18T19:17:46;1.00;;;0.65;;
74344;SDS011;62776;50.518;6.732;2023-02-18T19:20:36;0.50;;;0.50;;
74344;SDS011;62776;50.518;6.732;2023-02-18T19:23:23;0.60;;;0.60;;
74344;SDS011;62776;50.518;6.732;2023-02-18T19:26:09;0.43;;;0.43;;
74344;SDS011;62776;50.518;6.732;2023-02-18T19:28:58;0.60;;;0.60;;
74344;SDS011;62776;50.518;6.732;2023-02-18T19:31:44;0.45;;;0.45;;
74344;SDS011;62776;50.518;6.732;2023-02-18T19:34:31;0.40;;;0.40;;
74344;SDS011;62776;50.518;6.732;2023-02-18T19:37:17;0.40;;;0.40;;
74344;SDS011;62776;50.518;6.732;2023-02-18T19:40:05;0.57;;;0.57;;
74344;SDS011;62776;50.518;6.732;2023-02-18T19:43:02;1.00;;;0.90;;
74344;SDS011;62776;50.518;6.732;2023-02-18T19:45:49;0.50;;;0.50;;
74344;SDS011;62776;50.518;6.732;2023-02-18T19:48:35;0.68;;;0.60;;
74344;SDS011;62776;50.518;6.732;2023-02-18T19:51:39;0.50;;;0.50;;